Terminal Aerodrome Forecast
Issued by NWS

Home | Current Version | Previous Version | Text Only | Print | Product List | Glossary On
Versions: 1 2 3 4 5 6 7 8 9 10 11 12 13 14 15 16 17 18
000
FTUS43 KGRB 291133
TAFATW
TAF
KATW 291133Z 2912/3012 VRB03KT P6SM SCT050 BKN080
     FM291800 21007KT P6SM VCSH SCT035 BKN080
      TEMPO 3003/3006 -SHRA BKN035
     FM300600 VRB03KT P6SM VCSH SCT012 BKN035 PROB30 3006/3012 -SHRA
      BKN012=

USA.gov is the U.S. government's official web portal to all federal, state and local government web resources and services.